Strona główna
METAR-TAF:

METAR-TAF

Lotnisko :

Port lotniczy Breda-Gilze Rijen

Gilze-Rijen, Holandia

Szerokość geograficzna: 51-34N, Długość geograficzna: 004-56E, wysokość: 15 m

Aktualna obserwacja pogody

Raport powstał 24 minut temu, godzina 05:55 UTC
Wiatr 9 kt od północny wschód, zmienny między północ i wschód
Temperatura 12°C
Wilgotność 67%
Ciśnienie 1035 hPa
Widzialność 10 km lub więcej

METAR: EHGR 280555Z AUTO 05009KT 360V100 9999 NCD 12/06 Q1035 BLU

czas: 08:19 (06:19 UTC)

Prognoza

Raport powstał 1 godzina i 49 minut temu, godzina 04:30 UTC
Prognoza ważna od 28 godzina 05 UTC do 28 godzina 17 UTC
Wiatr 9 kt od północny wschód
Widzialność 10 km lub więcej
Brak chmur poniżej 1500 m i brak chmur cumulonimbus
Przejściowo
od 28 godzina 07 UTC do 28 godzina 17 UTC
Wiatr 10 kt od północny wschód w porywach dochodzący do 20 kt

TAF: EHGR 280430Z 2805/2817 05009KT CAVOK TEMPO 2807/2817 05010G20KT

Obserwacja i prognoza pogody dla ponad 4000 lotnisk (raport METAR i TAF).

Dostępne stacje oznaczono żółtymi i czerwonymi punktami na mapie.

Najedź kursorem aby zobaczyć nazwę stacji.

Kliknij aby zobaczyć obserwacje i prognozy pogody.

Aby zmienić mapę: kliknij na zielony przycisk z czarnym krzyżykiem, aby powiększyć; na zielony przycisk z myślnikiem, aby pomniejszyć; na zielone strzałki, aby przejść do map sąsiednich.


METAR-TAF: